Terminal Aerodrome Forecast
Issued by NWS Los Angeles, CA

Home | Current Version | Previous Version | Text Only | Print | Product List | Glossary On
Versions: 1 2 3 4 5 6 7 8 9 10 11 12 13
000
FTUS46 KLOX 221737
TAFSMX
TAF
KSMX 221737Z 2218/2318 32008KT P6SM SKC
     FM222000 31020G30KT P6SM VCSH BKN050
     FM230200 31012KT P6SM VCSH SCT025 BKN050
     FM230600 29008KT P6SM BKN040
     FM231100 30005KT P6SM SKC
     FM231500 VRB03KT P6SM SKC=

USA.gov is the U.S. government's official web portal to all federal, state and local government web resources and services.